createdAt,value
2019-05-01T00:00:15.999Z,1009.05
2019-05-01T00:01:07.544Z,1009.03
2019-05-01T00:02:06.533Z,1009.02
2019-05-01T00:03:06.524Z,1008.97
2019-05-01T00:04:06.517Z,1008.99
2019-05-01T00:05:06.509Z,1008.99
2019-05-01T00:06:06.496Z,1008.96
2019-05-01T00:07:06.503Z,1008.97
2019-05-01T00:08:06.475Z,1009.03
2019-05-01T00:09:06.458Z,1008.96
2019-05-01T00:10:06.447Z,1008.91
2019-05-01T00:11:06.467Z,1008.92
2019-05-01T00:12:06.424Z,1008.86
2019-05-01T00:13:06.423Z,1008.89
2019-05-01T00:14:06.402Z,1008.89
2019-05-01T00:15:06.403Z,1008.84
2019-05-01T00:16:06.393Z,1008.88
2019-05-01T00:17:06.378Z,1008.92
2019-05-01T00:18:06.364Z,1008.89
2019-05-01T00:19:06.354Z,1008.92
2019-05-01T00:20:06.356Z,1008.97
2019-05-01T00:21:06.368Z,1008.95
2019-05-01T00:22:06.373Z,1008.97
2019-05-01T00:23:06.311Z,1008.99
2019-05-01T00:24:06.300Z,1008.92
2019-05-01T00:25:06.311Z,1008.90
2019-05-01T00:26:06.283Z,1008.92
2019-05-01T00:27:06.266Z,1008.89
2019-05-01T00:28:06.253Z,1008.88
2019-05-01T00:29:06.247Z,1008.86
2019-05-01T00:30:06.231Z,1008.82
2019-05-01T00:31:06.270Z,1008.86
2019-05-01T00:32:06.215Z,1008.84
2019-05-01T00:33:06.206Z,1008.85
2019-05-01T00:34:06.215Z,1008.89
2019-05-01T00:35:06.179Z,1008.91
2019-05-01T00:36:06.166Z,1008.85
2019-05-01T00:37:06.169Z,1008.84
2019-05-01T00:38:06.150Z,1008.85
2019-05-01T00:39:06.134Z,1008.87
2019-05-01T00:40:06.122Z,1008.86
2019-05-01T00:41:06.122Z,1008.84
2019-05-01T00:42:06.099Z,1008.85
2019-05-01T00:43:06.090Z,1008.88
2019-05-01T00:44:06.079Z,1008.83
2019-05-01T00:45:06.111Z,1008.80
2019-05-01T00:46:06.063Z,1008.73
2019-05-01T00:47:06.045Z,1008.80
2019-05-01T00:48:06.034Z,1008.74
2019-05-01T00:49:06.028Z,1008.74
2019-05-01T00:50:06.037Z,1008.75
2019-05-01T00:51:06.002Z,1008.69
2019-05-01T00:52:05.991Z,1008.71
2019-05-01T00:53:05.993Z,1008.70
2019-05-01T00:54:05.974Z,1008.59
2019-05-01T00:55:05.963Z,1008.61
2019-05-01T00:56:05.957Z,1008.68
2019-05-01T00:57:05.957Z,1008.59
2019-05-01T00:58:05.926Z,1008.63
2019-05-01T00:59:05.917Z,1008.65
2019-05-01T01:00:05.905Z,1008.63
2019-05-01T01:01:05.897Z,1008.59
2019-05-01T01:02:06.162Z,1008.55
2019-05-01T01:03:05.871Z,1008.55
2019-05-01T01:04:05.861Z,1008.55
2019-05-01T01:05:05.852Z,1008.56
2019-05-01T01:06:05.927Z,1008.52
2019-05-01T01:07:05.826Z,1008.51
2019-05-01T01:08:05.820Z,1008.53
2019-05-01T01:09:05.807Z,1008.55
2019-05-01T01:10:05.807Z,1008.52
2019-05-01T01:11:05.786Z,1008.47
2019-05-01T01:12:05.791Z,1008.49
2019-05-01T01:13:05.762Z,1008.45
2019-05-01T01:14:05.753Z,1008.47
2019-05-01T01:15:05.738Z,1008.47
2019-05-01T01:16:05.736Z,1008.49
2019-05-01T01:17:05.732Z,1008.49
2019-05-01T01:18:05.729Z,1008.44
2019-05-01T01:19:05.701Z,1008.44
2019-05-01T01:20:05.701Z,1008.46
2019-05-01T01:21:05.673Z,1008.43
2019-05-01T01:22:05.668Z,1008.44
2019-05-01T01:23:05.658Z,1008.38
2019-05-01T01:24:05.647Z,1008.43
2019-05-01T01:25:05.630Z,1008.42
2019-05-01T01:26:05.624Z,1008.40
2019-05-01T01:27:05.611Z,1008.38
2019-05-01T01:28:05.600Z,1008.40
2019-05-01T01:29:05.592Z,1008.37
2019-05-01T01:30:05.581Z,1008.33
2019-05-01T01:31:05.561Z,1008.37
2019-05-01T01:32:05.555Z,1008.35
2019-05-01T01:33:05.565Z,1008.32
2019-05-01T01:34:05.536Z,1008.38
2019-05-01T01:35:05.522Z,1008.32
2019-05-01T01:36:05.518Z,1008.32
2019-05-01T01:37:05.540Z,1008.27
2019-05-01T01:38:05.488Z,1008.24
2019-05-01T01:39:05.482Z,1008.29
2019-05-01T01:40:05.503Z,1008.31
2019-05-01T01:41:05.450Z,1008.23
2019-05-01T01:42:05.443Z,1008.26
2019-05-01T01:43:05.471Z,1008.27
2019-05-01T01:44:05.428Z,1008.29
2019-05-01T01:45:05.408Z,1008.29
2019-05-01T01:46:05.412Z,1008.26
2019-05-01T01:47:05.385Z,1008.26
2019-05-01T01:48:05.388Z,1008.25
2019-05-01T01:49:06.025Z,1008.27
2019-05-01T01:50:05.364Z,1008.25
2019-05-01T01:51:05.345Z,1008.19
2019-05-01T01:52:05.335Z,1008.23
2019-05-01T01:53:06.455Z,1008.24
2019-05-01T01:54:05.308Z,1008.25
2019-05-01T01:55:05.305Z,1008.16
2019-05-01T01:56:05.318Z,1008.15
2019-05-01T01:57:05.281Z,1008.18
2019-05-01T01:58:05.266Z,1008.19
2019-05-01T01:59:05.255Z,1008.17
2019-05-01T02:00:05.275Z,1008.09
2019-05-01T02:01:09.689Z,1008.12
2019-05-01T02:02:05.270Z,1008.12
2019-05-01T02:03:05.217Z,1008.06
2019-05-01T02:04:05.205Z,1008.16
2019-05-01T02:05:05.194Z,1008.12
2019-05-01T02:06:05.237Z,1008.09
2019-05-01T02:07:05.181Z,1008.09
2019-05-01T02:08:05.159Z,1008.06
2019-05-01T02:09:05.171Z,1008.10
2019-05-01T02:10:05.169Z,1008.08
2019-05-01T02:11:05.130Z,1008.12
2019-05-01T02:12:05.128Z,1008.09
2019-05-01T02:13:05.119Z,1008.07
2019-05-01T02:14:05.109Z,1008.06
2019-05-01T02:15:05.086Z,1008.02
2019-05-01T02:16:05.080Z,1008.04
2019-05-01T02:17:05.060Z,1008.02
2019-05-01T02:18:05.055Z,1007.98
2019-05-01T02:19:05.064Z,1008.00
2019-05-01T02:20:05.039Z,1008.00
2019-05-01T02:21:05.019Z,1008.02
2019-05-01T02:22:05.008Z,1007.97
2019-05-01T02:23:04.996Z,1007.97
2019-05-01T02:24:04.992Z,1007.96
2019-05-01T02:25:04.972Z,1008.01
2019-05-01T02:26:04.968Z,1007.97
2019-05-01T02:27:04.952Z,1007.92
2019-05-01T02:28:04.941Z,1007.91
2019-05-01T02:29:06.195Z,1007.98
2019-05-01T02:30:04.915Z,1007.93
2019-05-01T02:31:04.909Z,1007.88
2019-05-01T02:32:04.907Z,1007.95
2019-05-01T02:33:04.887Z,1007.87
2019-05-01T02:34:04.882Z,1007.95
2019-05-01T02:35:04.870Z,1007.89
2019-05-01T02:36:04.852Z,1007.87
2019-05-01T02:37:04.838Z,1007.96
2019-05-01T02:38:04.834Z,1007.95
2019-05-01T02:39:04.823Z,1007.94
2019-05-01T02:40:04.836Z,1007.96
2019-05-01T02:41:04.800Z,1007.91
2019-05-01T02:42:04.790Z,1007.89
2019-05-01T02:43:04.774Z,1007.85
2019-05-01T02:44:04.761Z,1007.94
2019-05-01T02:45:04.794Z,1007.89
2019-05-01T02:46:04.754Z,1007.93
2019-05-01T02:47:04.737Z,1007.88
2019-05-01T02:48:04.723Z,1007.92
2019-05-01T02:49:04.714Z,1007.90
2019-05-01T02:50:04.695Z,1007.86
2019-05-01T02:51:04.699Z,1007.83
2019-05-01T02:52:04.673Z,1007.81
2019-05-01T02:53:04.660Z,1007.82
2019-05-01T02:54:04.656Z,1007.84
2019-05-01T02:55:04.673Z,1007.87
2019-05-01T02:56:04.648Z,1007.87
2019-05-01T02:57:04.623Z,1007.82
2019-05-01T02:58:04.613Z,1007.90
2019-05-01T02:59:04.601Z,1007.70
2019-05-01T03:00:04.587Z,1007.83
2019-05-01T03:01:04.572Z,1007.89
2019-05-01T03:02:04.593Z,1007.86
2019-05-01T03:03:04.559Z,1007.80
2019-05-01T03:04:04.543Z,1007.80
2019-05-01T03:05:04.528Z,1007.73
2019-05-01T03:06:04.523Z,1007.75
2019-05-01T03:07:05.420Z,1007.67
2019-05-01T03:08:04.519Z,1007.73
2019-05-01T03:09:04.485Z,1007.72
2019-05-01T03:10:09.003Z,1007.68
2019-05-01T03:11:05.482Z,1007.69
2019-05-01T03:12:04.458Z,1007.73
2019-05-01T03:13:04.455Z,1007.76
2019-05-01T03:14:04.434Z,1007.76
2019-05-01T03:15:04.423Z,1007.76
2019-05-01T03:16:04.499Z,1007.72
2019-05-01T03:17:04.406Z,1007.73
2019-05-01T03:18:04.424Z,1007.66
2019-05-01T03:19:04.393Z,1007.67
2019-05-01T03:20:04.371Z,1007.67
2019-05-01T03:21:04.363Z,1007.67
2019-05-01T03:22:04.341Z,1007.58
2019-05-01T03:23:04.341Z,1007.68
2019-05-01T03:24:04.334Z,1007.63
2019-05-01T03:25:04.318Z,1007.61
2019-05-01T03:26:04.303Z,1007.57
2019-05-01T03:27:04.289Z,1007.59
2019-05-01T03:28:04.282Z,1007.67
2019-05-01T03:29:04.335Z,1007.56
2019-05-01T03:30:04.265Z,1007.64
2019-05-01T03:31:04.258Z,1007.55
2019-05-01T03:32:16.920Z,1007.56
2019-05-01T03:33:05.226Z,1007.49
2019-05-01T03:34:04.230Z,1007.50
2019-05-01T03:35:04.223Z,1007.51
2019-05-01T03:36:04.191Z,1007.50
2019-05-01T03:37:04.225Z,1007.45
2019-05-01T03:38:04.176Z,1007.49
2019-05-01T03:39:04.157Z,1007.44
2019-05-01T03:40:04.142Z,1007.44
2019-05-01T03:41:04.141Z,1007.40
2019-05-01T03:42:04.128Z,1007.42
2019-05-01T03:43:04.121Z,1007.47
2019-05-01T03:44:04.112Z,1007.42
2019-05-01T03:45:04.089Z,1007.47
2019-05-01T03:46:04.100Z,1007.48
2019-05-01T03:47:04.072Z,1007.46
2019-05-01T03:48:04.067Z,1007.47
2019-05-01T03:49:04.050Z,1007.50
2019-05-01T03:50:04.032Z,1007.51
2019-05-01T03:51:04.204Z,1007.51
2019-05-01T03:52:04.033Z,1007.50
2019-05-01T03:53:04.002Z,1007.49
2019-05-01T03:54:04.001Z,1007.58
2019-05-01T03:55:04.298Z,1007.53
2019-05-01T03:56:03.975Z,1007.50
2019-05-01T03:57:03.962Z,1007.50
2019-05-01T03:58:03.946Z,1007.55
2019-05-01T03:59:03.935Z,1007.49
2019-05-01T04:00:03.922Z,1007.43
2019-05-01T04:01:03.929Z,1007.43
2019-05-01T04:02:03.966Z,1007.46
2019-05-01T04:03:03.904Z,1007.43
2019-05-01T04:04:03.886Z,1007.39
2019-05-01T04:05:03.945Z,1007.45
2019-05-01T04:06:03.865Z,1007.50
2019-05-01T04:07:03.869Z,1007.44
2019-05-01T04:08:03.864Z,1007.43
2019-05-01T04:09:03.835Z,1007.44
2019-05-01T04:10:03.827Z,1007.51
2019-05-01T04:11:03.803Z,1007.50
2019-05-01T04:12:03.799Z,1007.58
2019-05-01T04:13:03.782Z,1007.58
2019-05-01T04:14:03.783Z,1007.52
2019-05-01T04:15:03.768Z,1007.45
2019-05-01T04:16:03.750Z,1007.44
2019-05-01T04:17:03.741Z,1007.42
2019-05-01T04:18:03.746Z,1007.50
2019-05-01T04:19:03.740Z,1007.59
2019-05-01T04:20:03.758Z,1007.59
2019-05-01T04:21:03.695Z,1007.59
2019-05-01T04:22:03.690Z,1007.59
2019-05-01T04:23:03.679Z,1007.56
2019-05-01T04:24:03.699Z,1007.53
2019-05-01T04:25:03.660Z,1007.51
2019-05-01T04:26:03.663Z,1007.55
2019-05-01T04:27:03.642Z,1007.53
2019-05-01T04:28:03.631Z,1007.53
2019-05-01T04:29:03.613Z,1007.54
2019-05-01T04:30:03.606Z,1007.56
2019-05-01T04:31:03.640Z,1007.57
2019-05-01T04:32:03.575Z,1007.59
2019-05-01T04:33:03.571Z,1007.60
2019-05-01T04:34:03.573Z,1007.65
2019-05-01T04:35:03.553Z,1007.72
2019-05-01T04:36:03.532Z,1007.71
2019-05-01T04:37:03.541Z,1007.71
2019-05-01T04:38:03.507Z,1007.73
2019-05-01T04:39:03.497Z,1007.68
2019-05-01T04:40:03.503Z,1007.71
2019-05-01T04:41:03.490Z,1007.67
2019-05-01T04:42:03.466Z,1007.70
2019-05-01T04:43:03.467Z,1007.69
2019-05-01T04:44:03.467Z,1007.74
2019-05-01T04:45:03.443Z,1007.72
2019-05-01T04:46:03.424Z,1007.71
2019-05-01T04:47:03.417Z,1007.76
2019-05-01T04:48:03.409Z,1007.73
2019-05-01T04:49:03.429Z,1007.74
2019-05-01T04:50:03.393Z,1007.73
2019-05-01T04:51:03.374Z,1007.73
2019-05-01T04:52:03.358Z,1007.69
2019-05-01T04:53:03.347Z,1007.71
2019-05-01T04:54:03.349Z,1007.76
2019-05-01T04:55:03.321Z,1007.80
2019-05-01T04:56:03.319Z,1007.79
2019-05-01T04:57:03.302Z,1007.82
2019-05-01T04:58:03.298Z,1007.82
2019-05-01T04:59:03.295Z,1007.83
2019-05-01T05:00:03.277Z,1007.79
2019-05-01T05:01:03.270Z,1007.77
2019-05-01T05:02:03.252Z,1007.82
2019-05-01T05:03:04.994Z,1007.81
2019-05-01T05:04:03.227Z,1007.83
2019-05-01T05:05:03.228Z,1007.82
2019-05-01T05:06:03.230Z,1007.85
2019-05-01T05:07:03.194Z,1007.86
2019-05-01T05:08:03.178Z,1007.88
2019-05-01T05:09:03.168Z,1007.86
2019-05-01T05:10:03.172Z,1007.87
2019-05-01T05:11:03.302Z,1007.92
2019-05-01T05:12:03.139Z,1007.89
2019-05-01T05:13:03.127Z,1007.91
2019-05-01T05:14:03.122Z,1007.89
2019-05-01T05:15:03.107Z,1007.90
2019-05-01T05:16:03.109Z,1007.93
2019-05-01T05:17:03.131Z,1007.87
2019-05-01T05:18:03.071Z,1007.95
2019-05-01T05:19:03.090Z,1007.96
2019-05-01T05:20:03.053Z,1007.91
2019-05-01T05:21:03.053Z,1007.88
2019-05-01T05:22:03.045Z,1007.90
2019-05-01T05:23:03.033Z,1007.89
2019-05-01T05:24:03.015Z,1007.91
2019-05-01T05:25:02.998Z,1007.94
2019-05-01T05:26:02.983Z,1007.94
2019-05-01T05:27:02.973Z,1007.93
2019-05-01T05:28:02.974Z,1007.95
2019-05-01T05:29:02.965Z,1007.99
2019-05-01T05:30:02.938Z,1007.96
2019-05-01T05:31:02.934Z,1007.93
2019-05-01T05:32:02.922Z,1007.89
2019-05-01T05:33:02.970Z,1007.95
2019-05-01T05:34:02.935Z,1007.97
2019-05-01T05:35:02.889Z,1007.86
2019-05-01T05:36:02.878Z,1007.88
2019-05-01T05:37:02.875Z,1007.87
2019-05-01T05:38:02.863Z,1007.88
2019-05-01T05:39:02.906Z,1007.95
2019-05-01T05:40:02.839Z,1007.93
2019-05-01T05:41:02.821Z,1007.87
2019-05-01T05:42:02.824Z,1007.89
2019-05-01T05:43:02.805Z,1007.86
2019-05-01T05:44:02.816Z,1007.85
2019-05-01T05:45:02.810Z,1007.84
2019-05-01T05:46:02.779Z,1007.93
2019-05-01T05:47:02.761Z,1007.86
2019-05-01T05:48:02.759Z,1007.93
2019-05-01T05:49:02.742Z,1007.86
2019-05-01T05:50:02.733Z,1007.76
2019-05-01T05:51:02.745Z,1007.82
2019-05-01T05:52:02.703Z,1007.78
2019-05-01T05:53:02.696Z,1007.80
2019-05-01T05:54:02.688Z,1007.78
2019-05-01T05:55:02.690Z,1007.78
2019-05-01T05:56:02.662Z,1007.85
2019-05-01T05:57:02.691Z,1007.83
2019-05-01T05:58:02.653Z,1007.78
2019-05-01T05:59:02.629Z,1007.82
2019-05-01T06:00:02.623Z,1007.86
2019-05-01T06:01:02.612Z,1007.80
2019-05-01T06:02:02.595Z,1007.82
2019-05-01T06:03:02.601Z,1007.83
2019-05-01T06:04:02.579Z,1007.89
2019-05-01T06:05:02.601Z,1007.84
2019-05-01T06:06:02.551Z,1007.78
2019-05-01T06:07:02.539Z,1007.75
2019-05-01T06:08:02.560Z,1007.77
2019-05-01T06:09:02.523Z,1007.82
2019-05-01T06:10:02.506Z,1007.78
2019-05-01T06:11:02.498Z,1007.83
2019-05-01T06:12:04.985Z,1007.85
2019-05-01T06:13:03.522Z,1007.81
2019-05-01T06:14:02.475Z,1007.80
2019-05-01T06:15:06.507Z,1007.80
2019-05-01T06:16:03.445Z,1007.78
2019-05-01T06:17:02.440Z,1007.80
2019-05-01T06:18:04.119Z,1007.73
2019-05-01T06:19:02.408Z,1007.77
2019-05-01T06:20:02.397Z,1007.82
2019-05-01T06:21:03.847Z,1007.85
2019-05-01T06:22:04.913Z,1007.88
2019-05-01T06:23:03.381Z,1007.85
2019-05-01T06:24:06.504Z,1007.87
2019-05-01T06:25:02.364Z,1007.88
2019-05-01T06:26:02.664Z,1007.88
2019-05-01T06:27:02.322Z,1007.80
2019-05-01T06:28:02.321Z,1007.81
2019-05-01T06:29:02.297Z,1007.81
2019-05-01T06:30:02.308Z,1007.80
2019-05-01T06:31:02.283Z,1007.76
2019-05-01T06:32:02.271Z,1007.86
2019-05-01T06:33:04.189Z,1007.86
2019-05-01T06:34:03.242Z,1007.81
2019-05-01T06:35:03.058Z,1007.79
2019-05-01T06:36:02.231Z,1007.85
2019-05-01T06:37:02.208Z,1007.80
2019-05-01T06:38:02.420Z,1007.88
2019-05-01T06:39:02.186Z,1007.81
2019-05-01T06:40:02.185Z,1007.84
2019-05-01T06:41:02.208Z,1007.80
2019-05-01T06:42:02.249Z,1007.82
2019-05-01T06:43:02.147Z,1007.75
2019-05-01T06:44:04.045Z,1007.80
2019-05-01T06:45:02.124Z,1007.73
2019-05-01T06:46:02.116Z,1007.77
2019-05-01T06:47:03.639Z,1007.75
2019-05-01T06:48:02.099Z,1007.78
2019-05-01T06:49:02.082Z,1007.79
2019-05-01T06:50:06.006Z,1007.85
2019-05-01T06:51:03.091Z,1007.81
2019-05-01T06:52:02.057Z,1007.82
2019-05-01T06:53:04.661Z,1007.89
2019-05-01T06:54:02.035Z,1007.82
2019-05-01T06:55:02.019Z,1007.86
2019-05-01T06:56:02.010Z,1007.90
2019-05-01T06:57:02.001Z,1007.94
2019-05-01T06:58:01.984Z,1007.94
2019-05-01T06:59:01.965Z,1007.89
2019-05-01T07:00:03.258Z,1007.90
2019-05-01T07:01:02.949Z,1007.93
2019-05-01T07:02:01.944Z,1007.89
2019-05-01T07:03:05.935Z,1007.93
2019-05-01T07:04:04.015Z,1007.89
2019-05-01T07:05:01.902Z,1007.95
2019-05-01T07:06:13.817Z,1007.95
2019-05-01T07:07:06.662Z,1007.97
2019-05-01T07:08:01.904Z,1007.93
2019-05-01T07:09:01.854Z,1007.95
2019-05-01T07:10:01.847Z,1007.93
2019-05-01T07:11:01.838Z,1007.94
2019-05-01T07:12:01.822Z,1007.99
2019-05-01T07:13:04.828Z,1007.91
2019-05-01T07:14:01.811Z,1007.94
2019-05-01T07:15:01.796Z,1007.91
2019-05-01T07:16:03.267Z,1007.99
2019-05-01T07:17:01.784Z,1007.99
2019-05-01T07:18:01.766Z,1007.99
2019-05-01T07:19:05.914Z,1007.94
2019-05-01T07:20:02.751Z,1007.86
2019-05-01T07:21:01.803Z,1007.88
2019-05-01T07:22:01.921Z,1007.93
2019-05-01T07:23:01.713Z,1007.96
2019-05-01T07:24:01.705Z,1007.94
2019-05-01T07:25:03.952Z,1007.98
2019-05-01T07:26:01.755Z,1007.94
2019-05-01T07:27:01.697Z,1007.95
2019-05-01T07:28:01.676Z,1007.95
2019-05-01T07:29:06.131Z,1007.98
2019-05-01T07:30:02.622Z,1007.97
2019-05-01T07:31:01.618Z,1007.95
2019-05-01T07:32:05.978Z,1007.93
2019-05-01T07:33:01.618Z,1007.97
2019-05-01T07:34:01.579Z,1008.00
2019-05-01T07:35:02.327Z,1008.06
2019-05-01T07:36:01.557Z,1008.06
2019-05-01T07:37:01.656Z,1008.04
2019-05-01T07:38:02.252Z,1008.03
2019-05-01T07:39:01.525Z,1008.05
2019-05-01T07:40:01.546Z,1008.07
2019-05-01T07:41:03.314Z,1008.15
2019-05-01T07:42:01.500Z,1008.17
2019-05-01T07:43:01.499Z,1008.13
2019-05-01T07:44:01.484Z,1008.12
2019-05-01T07:45:03.953Z,1008.09
2019-05-01T07:46:02.498Z,1008.08
2019-05-01T07:47:01.446Z,1008.10
2019-05-01T07:48:05.591Z,1008.18
2019-05-01T07:49:01.417Z,1008.13
2019-05-01T07:50:01.420Z,1008.13
2019-05-01T07:51:01.868Z,1008.07
2019-05-01T07:52:02.436Z,1008.06
2019-05-01T07:53:01.380Z,1008.10
2019-05-01T07:54:03.667Z,1008.14
2019-05-01T07:55:02.363Z,1008.12
2019-05-01T07:56:01.384Z,1008.11
2019-05-01T07:57:03.153Z,1008.13
2019-05-01T07:58:01.319Z,1008.13
2019-05-01T07:59:01.307Z,1008.16
2019-05-01T08:00:03.585Z,1008.21
2019-05-01T08:01:01.294Z,1008.22
2019-05-01T08:02:01.277Z,1008.17
2019-05-01T08:03:02.684Z,1008.14
2019-05-01T08:04:02.253Z,1008.16
2019-05-01T08:05:04.934Z,1008.14
2019-05-01T08:06:02.269Z,1008.22
2019-05-01T08:07:01.220Z,1008.12
2019-05-01T08:08:02.881Z,1008.18
2019-05-01T08:09:01.202Z,1008.13
2019-05-01T08:10:01.185Z,1008.14
2019-05-01T08:11:05.370Z,1008.10
2019-05-01T08:12:02.212Z,1008.15
2019-05-01T08:13:01.996Z,1008.15
2019-05-01T08:14:07.386Z,1008.10
2019-05-01T08:15:02.136Z,1008.16
2019-05-01T08:16:02.097Z,1008.23
2019-05-01T08:17:02.123Z,1008.16
2019-05-01T08:18:01.121Z,1008.15
2019-05-01T08:19:04.008Z,1008.13
2019-05-01T08:20:01.074Z,1008.13
2019-05-01T08:21:01.066Z,1008.20
2019-05-01T08:22:01.817Z,1008.20
2019-05-01T08:23:01.065Z,1008.30
2019-05-01T08:24:01.032Z,1008.21
2019-05-01T08:25:01.025Z,1008.28
2019-05-01T08:26:04.053Z,1008.29
2019-05-01T08:27:02.000Z,1008.24
2019-05-01T08:28:01.010Z,1008.18
2019-05-01T08:29:03.042Z,1008.21
2019-05-01T08:30:01.964Z,1008.13
2019-05-01T08:31:00.956Z,1008.11
2019-05-01T08:32:03.460Z,1008.11
2019-05-01T08:33:00.950Z,1008.17
2019-05-01T08:34:00.953Z,1008.15
2019-05-01T08:35:02.423Z,1008.22
2019-05-01T08:36:00.902Z,1008.23
2019-05-01T08:37:00.889Z,1008.14
2019-05-01T08:38:00.873Z,1008.16
2019-05-01T08:39:04.875Z,1008.21
2019-05-01T08:40:01.889Z,1008.06
2019-05-01T08:41:00.846Z,1008.09
2019-05-01T08:42:03.097Z,1008.08
2019-05-01T08:43:01.823Z,1008.12
2019-05-01T08:44:00.812Z,1008.03
2019-05-01T08:45:05.268Z,1008.11
2019-05-01T08:46:01.809Z,1007.99
2019-05-01T08:47:00.787Z,1008.09
2019-05-01T08:48:01.521Z,1008.10
2019-05-01T08:49:00.757Z,1008.09
2019-05-01T08:50:00.751Z,1008.11
2019-05-01T08:51:00.750Z,1008.00
2019-05-01T08:52:04.832Z,1008.11
2019-05-01T08:53:01.712Z,1008.07
2019-05-01T08:54:00.704Z,1008.13
2019-05-01T08:55:04.367Z,1008.01
2019-05-01T08:56:01.695Z,1008.13
2019-05-01T08:57:00.669Z,1008.07
2019-05-01T08:58:00.662Z,1008.08
2019-05-01T08:59:00.646Z,1008.01
2019-05-01T09:00:01.666Z,1008.07
2019-05-01T09:01:00.661Z,1008.19
2019-05-01T09:02:09.089Z,1008.16
2019-05-01T09:03:08.289Z,1008.06
2019-05-01T09:04:12.254Z,1008.15
2019-05-01T09:05:02.824Z,1008.14
2019-05-01T09:06:00.569Z,1008.12
2019-05-01T09:07:00.571Z,1008.03
2019-05-01T09:08:00.551Z,1008.20
2019-05-01T09:09:02.869Z,1008.06
2019-05-01T09:10:01.530Z,1007.99
2019-05-01T09:11:02.198Z,1008.10
2019-05-01T09:12:00.512Z,1008.11
2019-05-01T09:13:00.575Z,1008.00
2019-05-01T09:14:00.481Z,1008.03
2019-05-01T09:15:00.485Z,1007.86
2019-05-01T09:16:00.465Z,1007.93
2019-05-01T09:17:00.473Z,1007.97
2019-05-01T09:18:00.620Z,1007.91
2019-05-01T09:19:00.471Z,1007.96
2019-05-01T09:20:00.418Z,1007.91
2019-05-01T09:21:00.405Z,1007.90
2019-05-01T09:22:00.405Z,1007.83
2019-05-01T09:23:00.400Z,1007.87
2019-05-01T09:24:00.382Z,1007.80
2019-05-01T09:25:01.880Z,1007.87
2019-05-01T09:26:00.353Z,1007.84
2019-05-01T09:27:00.357Z,1007.88
2019-05-01T09:28:04.138Z,1007.88
2019-05-01T09:29:01.328Z,1007.81
2019-05-01T09:30:00.310Z,1007.82
2019-05-01T09:31:02.268Z,1007.74
2019-05-01T09:32:00.291Z,1007.77
2019-05-01T09:33:00.284Z,1007.75
2019-05-01T09:34:00.269Z,1007.83
2019-05-01T09:35:00.251Z,1007.82
2019-05-01T09:36:00.249Z,1007.85
2019-05-01T09:37:00.245Z,1007.74
2019-05-01T09:38:00.258Z,1007.74
2019-05-01T09:39:00.226Z,1007.75
2019-05-01T09:40:04.237Z,1007.81
2019-05-01T09:41:01.270Z,1007.73
2019-05-01T09:42:00.203Z,1007.72
2019-05-01T09:43:01.196Z,1007.66
2019-05-01T09:44:00.170Z,1007.79
2019-05-01T09:45:00.160Z,1007.81
2019-05-01T09:46:00.145Z,1007.64
2019-05-01T09:47:00.131Z,1007.74
2019-05-01T09:48:00.113Z,1007.63
2019-05-01T09:49:00.114Z,1007.59
2019-05-01T09:50:00.097Z,1007.69
2019-05-01T09:51:00.867Z,1007.58
2019-05-01T09:52:00.069Z,1007.54
2019-05-01T09:53:00.965Z,1007.56
2019-05-01T09:54:00.052Z,1007.58
2019-05-01T09:55:00.042Z,1007.55
2019-05-01T09:56:03.283Z,1007.57
2019-05-01T09:57:00.021Z,1007.59
2019-05-01T09:58:02.681Z,1007.58
2019-05-01T09:58:59.999Z,1007.62
2019-05-01T10:00:00.019Z,1007.58
2019-05-01T10:00:59.972Z,1007.63
2019-05-01T10:02:03.045Z,1007.66
2019-05-01T10:03:00.957Z,1007.52
2019-05-01T10:03:59.940Z,1007.62
2019-05-01T10:05:02.076Z,1007.66
2019-05-01T10:06:00.933Z,1007.58
2019-05-01T10:07:02.230Z,1007.64
2019-05-01T10:08:03.974Z,1007.76
2019-05-01T10:09:00.892Z,1007.71
2019-05-01T10:09:59.882Z,1007.73
2019-05-01T10:11:04.996Z,1007.75
2019-05-01T10:12:00.863Z,1007.65
2019-05-01T10:12:59.849Z,1007.63
2019-05-01T10:13:59.851Z,1007.61
2019-05-01T10:14:59.831Z,1007.56
2019-05-01T10:15:59.809Z,1007.61
2019-05-01T10:16:59.800Z,1007.55
2019-05-01T10:17:59.794Z,1007.55
2019-05-01T10:18:59.776Z,1007.55
2019-05-01T10:19:59.779Z,1007.44
2019-05-01T10:20:59.760Z,1007.51
2019-05-01T10:22:02.345Z,1007.47
2019-05-01T10:22:59.751Z,1007.44
2019-05-01T10:23:59.723Z,1007.43
2019-05-01T10:24:59.717Z,1007.41
2019-05-01T10:25:59.709Z,1007.46
2019-05-01T10:27:00.428Z,1007.43
2019-05-01T10:27:59.703Z,1007.45
2019-05-01T10:28:59.670Z,1007.40
2019-05-01T10:30:01.506Z,1007.47
2019-05-01T10:30:59.658Z,1007.41
2019-05-01T10:31:59.643Z,1007.35
2019-05-01T10:32:59.746Z,1007.41
2019-05-01T10:34:02.819Z,1007.41
2019-05-01T10:35:00.616Z,1007.39
2019-05-01T10:35:59.597Z,1007.36
2019-05-01T10:36:59.608Z,1007.35
2019-05-01T10:37:59.570Z,1007.37
2019-05-01T10:38:59.573Z,1007.27
2019-05-01T10:39:59.551Z,1007.24
2019-05-01T10:40:59.571Z,1007.25
2019-05-01T10:41:59.537Z,1007.22
2019-05-01T10:42:59.517Z,1007.27
2019-05-01T10:43:59.508Z,1007.26
2019-05-01T10:44:59.503Z,1007.24
2019-05-01T10:45:59.494Z,1007.23
2019-05-01T10:47:01.874Z,1007.28
2019-05-01T10:47:59.463Z,1007.25
2019-05-01T10:48:59.452Z,1007.23
2019-05-01T10:49:59.448Z,1007.19
2019-05-01T10:50:59.448Z,1007.12
2019-05-01T10:51:59.432Z,1007.16
2019-05-01T10:52:59.409Z,1007.18
2019-05-01T10:53:59.400Z,1007.16
2019-05-01T10:54:59.394Z,1007.17
2019-05-01T10:55:59.402Z,1007.14
2019-05-01T10:57:03.387Z,1007.12
2019-05-01T10:58:03.200Z,1007.13
2019-05-01T10:58:59.345Z,1007.14
2019-05-01T10:59:59.349Z,1007.05
2019-05-01T11:00:59.331Z,1007.13
2019-05-01T11:01:59.329Z,1007.09
2019-05-01T11:02:59.318Z,1007.12
2019-05-01T11:03:59.307Z,1007.10
2019-05-01T11:04:59.282Z,1007.07
2019-05-01T11:05:59.283Z,1007.07
2019-05-01T11:06:59.279Z,1007.09
2019-05-01T11:07:59.254Z,1007.10
2019-05-01T11:08:59.242Z,1007.09
2019-05-01T11:09:59.228Z,1007.05
2019-05-01T11:10:59.228Z,1007.11
2019-05-01T11:11:59.212Z,1007.03
2019-05-01T11:12:59.218Z,1007.02
2019-05-01T11:13:59.193Z,1007.02
2019-05-01T11:14:59.179Z,1007.09
2019-05-01T11:15:59.188Z,1007.07
2019-05-01T11:16:59.162Z,1007.02
2019-05-01T11:17:59.148Z,1007.05
2019-05-01T11:18:59.138Z,1006.99
2019-05-01T11:19:59.130Z,1006.97
2019-05-01T11:20:59.113Z,1006.97
2019-05-01T11:21:59.102Z,1006.95
2019-05-01T11:22:59.139Z,1006.97
2019-05-01T11:23:59.082Z,1006.96
2019-05-01T11:24:59.077Z,1006.87
2019-05-01T11:25:59.087Z,1006.90
2019-05-01T11:26:59.079Z,1006.84
2019-05-01T11:27:59.040Z,1006.84
2019-05-01T11:28:59.026Z,1006.86
2019-05-01T11:29:59.013Z,1006.76
2019-05-01T11:30:59.023Z,1006.85
2019-05-01T11:31:59.000Z,1006.83
2019-05-01T11:32:59.005Z,1006.86
2019-05-01T11:33:58.970Z,1006.82
2019-05-01T11:34:58.965Z,1006.87
2019-05-01T11:36:09.293Z,1006.91
2019-05-01T11:36:59.945Z,1006.92
2019-05-01T11:37:58.935Z,1006.91
2019-05-01T11:38:58.934Z,1006.90
2019-05-01T11:39:58.912Z,1006.85
2019-05-01T11:40:58.902Z,1006.96
2019-05-01T11:41:58.886Z,1006.93
2019-05-01T11:42:58.878Z,1006.94
2019-05-01T11:43:58.874Z,1006.90
2019-05-01T11:44:58.899Z,1006.78
2019-05-01T11:45:58.848Z,1006.84
2019-05-01T11:46:58.835Z,1006.88
2019-05-01T11:47:58.830Z,1006.86
2019-05-01T11:48:58.834Z,1006.85
2019-05-01T11:49:58.807Z,1006.82
2019-05-01T11:50:58.800Z,1006.85
2019-05-01T11:51:58.785Z,1006.80
2019-05-01T11:52:58.772Z,1006.76
2019-05-01T11:53:58.768Z,1006.69
2019-05-01T11:54:58.952Z,1006.75
2019-05-01T11:55:58.828Z,1006.76
2019-05-01T11:56:58.816Z,1006.79
2019-05-01T11:57:58.794Z,1006.77
2019-05-01T11:58:58.803Z,1006.70
2019-05-01T11:59:58.730Z,1006.67
2019-05-01T12:00:58.692Z,1006.69
2019-05-01T12:01:58.684Z,1006.50
2019-05-01T12:02:58.667Z,1006.76
2019-05-01T12:03:58.662Z,1006.71
2019-05-01T12:04:58.650Z,1006.66